sensor_id;sensor_type;location;lat;lon;timestamp;pressure;altitude;pressure_sealevel;temperature;humidity
35918;BME280;22011;59.912;30.300;2023-08-07T00:01:23;100982.19;;;25.20;78.34
35918;BME280;22011;59.912;30.300;2023-08-07T00:03:51;100988.72;;;25.19;78.56
35918;BME280;22011;59.912;30.300;2023-08-07T00:06:19;100985.16;;;25.18;78.12
35918;BME280;22011;59.912;30.300;2023-08-07T00:08:46;100978.88;;;25.18;78.04
35918;BME280;22011;59.912;30.300;2023-08-07T00:11:14;100980.78;;;25.17;78.40
35918;BME280;22011;59.912;30.300;2023-08-07T00:13:41;100982.69;;;25.17;78.03
35918;BME280;22011;59.912;30.300;2023-08-07T00:16:09;100976.16;;;25.18;77.98
35918;BME280;22011;59.912;30.300;2023-08-07T00:18:39;100984.59;;;25.16;77.77
35918;BME280;22011;59.912;30.300;2023-08-07T00:21:06;100982.13;;;25.15;77.63
35918;BME280;22011;59.912;30.300;2023-08-07T00:23:34;100973.38;;;25.13;77.61
35918;BME280;22011;59.912;30.300;2023-08-07T00:26:01;100978.81;;;25.13;77.79
35918;BME280;22011;59.912;30.300;2023-08-07T00:28:29;100984.53;;;25.11;77.56
35918;BME280;22011;59.912;30.300;2023-08-07T00:30:56;100983.47;;;25.12;77.21
35918;BME280;22011;59.912;30.300;2023-08-07T00:33:24;100985.94;;;25.14;77.42
35918;BME280;22011;59.912;30.300;2023-08-07T00:35:53;100987.88;;;25.18;77.20
35918;BME280;22011;59.912;30.300;2023-08-07T00:38:21;100979.13;;;25.16;76.87
35918;BME280;22011;59.912;30.300;2023-08-07T00:40:48;100979.97;;;25.17;76.96
35918;BME280;22011;59.912;30.300;2023-08-07T00:43:16;100977.50;;;25.15;76.59
35918;BME280;22011;59.912;30.300;2023-08-07T00:45:47;100989.22;;;25.16;76.84
35918;BME280;22011;59.912;30.300;2023-08-07T00:48:15;100976.09;;;25.13;77.14
35918;BME280;22011;59.912;30.300;2023-08-07T00:50:44;100979.41;;;25.15;76.58
35918;BME280;22011;59.912;30.300;2023-08-07T00:53:14;100978.78;;;25.34;76.54
35918;BME280;22011;59.912;30.300;2023-08-07T00:55:42;100973.69;;;25.16;76.45
35918;BME280;22011;59.912;30.300;2023-08-07T00:58:10;100988.41;;;25.15;76.04
35918;BME280;22011;59.912;30.300;2023-08-07T01:00:38;100975.59;;;25.16;76.21
35918;BME280;22011;59.912;30.300;2023-08-07T01:03:08;100970.13;;;25.16;75.72
35918;BME280;22011;59.912;30.300;2023-08-07T01:05:36;100970.13;;;25.16;75.61
35918;BME280;22011;59.912;30.300;2023-08-07T01:08:04;100971.22;;;25.15;75.81
35918;BME280;22011;59.912;30.300;2023-08-07T01:10:41;100973.75;;;25.21;76.18
35918;BME280;22011;59.912;30.300;2023-08-07T01:13:18;100968.22;;;25.16;75.88
35918;BME280;22011;59.912;30.300;2023-08-07T01:15:49;100973.38;;;25.13;75.88
35918;BME280;22011;59.912;30.300;2023-08-07T01:18:20;100970.59;;;25.07;75.68
35918;BME280;22011;59.912;30.300;2023-08-07T01:20:48;100962.16;;;25.09;75.54
35918;BME280;22011;59.912;30.300;2023-08-07T01:23:17;100973.06;;;25.09;75.53
35918;BME280;22011;59.912;30.300;2023-08-07T01:25:45;100971.72;;;25.12;75.51
35918;BME280;22011;59.912;30.300;2023-08-07T01:28:18;100972.03;;;25.15;75.76
35918;BME280;22011;59.912;30.300;2023-08-07T01:30:55;100970.09;;;25.10;75.77
35918;BME280;22011;59.912;30.300;2023-08-07T01:33:32;100969.00;;;25.12;76.15
35918;BME280;22011;59.912;30.300;2023-08-07T01:36:02;100975.72;;;25.04;75.94
35918;BME280;22011;59.912;30.300;2023-08-07T01:38:34;100972.75;;;25.05;75.85
35918;BME280;22011;59.912;30.300;2023-08-07T01:41:02;100971.94;;;25.05;75.38
35918;BME280;22011;59.912;30.300;2023-08-07T01:43:31;100966.97;;;25.02;75.71
35918;BME280;22011;59.912;30.300;2023-08-07T01:46:01;100961.28;;;25.03;75.82
35918;BME280;22011;59.912;30.300;2023-08-07T01:48:29;100957.97;;;25.01;75.72
35918;BME280;22011;59.912;30.300;2023-08-07T01:50:56;100955.81;;;25.03;75.15
35918;BME280;22011;59.912;30.300;2023-08-07T01:53:24;100954.19;;;25.02;75.21
35918;BME280;22011;59.912;30.300;2023-08-07T01:55:53;100967.81;;;25.02;75.76
35918;BME280;22011;59.912;30.300;2023-08-07T01:58:21;100952.78;;;25.00;75.49
35918;BME280;22011;59.912;30.300;2023-08-07T02:00:48;100956.59;;;24.99;75.07
35918;BME280;22011;59.912;30.300;2023-08-07T02:03:16;100951.41;;;24.97;75.02
35918;BME280;22011;59.912;30.300;2023-08-07T02:05:45;100947.84;;;24.97;75.37
35918;BME280;22011;59.912;30.300;2023-08-07T02:08:12;100949.19;;;24.94;75.54
35918;BME280;22011;59.912;30.300;2023-08-07T02:10:40;100952.72;;;24.95;75.14
35918;BME280;22011;59.912;30.300;2023-08-07T02:13:09;100954.13;;;24.97;75.70
35918;BME280;22011;59.912;30.300;2023-08-07T02:15:37;100957.34;;;24.94;75.29
35918;BME280;22011;59.912;30.300;2023-08-07T02:18:06;100957.63;;;24.93;75.60
35918;BME280;22011;59.912;30.300;2023-08-07T02:20:33;100961.69;;;24.90;75.32
35918;BME280;22011;59.912;30.300;2023-08-07T02:23:01;100957.31;;;24.89;75.63
35918;BME280;22011;59.912;30.300;2023-08-07T02:25:28;100953.75;;;24.89;75.09
35918;BME280;22011;59.912;30.300;2023-08-07T02:27:56;100954.00;;;24.87;75.44
35918;BME280;22011;59.912;30.300;2023-08-07T02:30:25;100959.47;;;24.87;75.56
35918;BME280;22011;59.912;30.300;2023-08-07T02:32:53;100956.16;;;24.85;75.62
35918;BME280;22011;59.912;30.300;2023-08-07T02:35:21;100954.50;;;24.84;75.62
35918;BME280;22011;59.912;30.300;2023-08-07T02:37:50;100943.63;;;24.84;75.30
35918;BME280;22011;59.912;30.300;2023-08-07T02:40:18;100948.50;;;24.82;75.69
35918;BME280;22011;59.912;30.300;2023-08-07T02:42:45;100948.50;;;24.82;75.46
35918;BME280;22011;59.912;30.300;2023-08-07T02:45:13;100950.41;;;24.82;75.90
35918;BME280;22011;59.912;30.300;2023-08-07T02:47:42;100949.56;;;24.81;75.74
35918;BME280;22011;59.912;30.300;2023-08-07T02:50:10;100950.09;;;24.78;75.68
35918;BME280;22011;59.912;30.300;2023-08-07T02:52:38;100947.63;;;24.76;75.67
35918;BME280;22011;59.912;30.300;2023-08-07T02:55:06;100956.03;;;24.75;75.83
35918;BME280;22011;59.912;30.300;2023-08-07T02:57:34;100954.97;;;24.76;75.64
35918;BME280;22011;59.912;30.300;2023-08-07T03:00:02;100961.56;;;24.80;75.62
35918;BME280;22011;59.912;30.300;2023-08-07T03:02:30;100964.28;;;24.80;75.69
35918;BME280;22011;59.912;30.300;2023-08-07T03:04:59;100955.59;;;24.83;75.52
35918;BME280;22011;59.912;30.300;2023-08-07T03:07:26;100951.78;;;24.84;75.09
35918;BME280;22011;59.912;30.300;2023-08-07T03:09:54;100953.69;;;24.84;74.90
35918;BME280;22011;59.912;30.300;2023-08-07T03:12:22;100949.06;;;24.84;75.32
35918;BME280;22011;59.912;30.300;2023-08-07T03:14:49;100944.56;;;24.95;74.54
35918;BME280;22011;59.912;30.300;2023-08-07T03:17:17;100952.47;;;24.96;74.65
35918;BME280;22011;59.912;30.300;2023-08-07T03:19:49;100951.44;;;25.02;74.52
35918;BME280;22011;59.912;30.300;2023-08-07T03:22:18;100945.19;;;25.02;74.32
35918;BME280;22011;59.912;30.300;2023-08-07T03:24:46;100937.81;;;25.02;73.57
35918;BME280;22011;59.912;30.300;2023-08-07T03:27:14;100944.91;;;25.03;73.76
35918;BME280;22011;59.912;30.300;2023-08-07T03:29:42;100941.13;;;25.04;73.77
35918;BME280;22011;59.912;30.300;2023-08-07T03:32:09;100934.59;;;25.05;73.89
35918;BME280;22011;59.912;30.300;2023-08-07T03:34:38;100939.22;;;25.05;73.84
35918;BME280;22011;59.912;30.300;2023-08-07T03:37:07;100934.06;;;25.08;73.80
35918;BME280;22011;59.912;30.300;2023-08-07T03:39:36;100946.09;;;25.13;73.46
35918;BME280;22011;59.912;30.300;2023-08-07T03:42:04;100934.13;;;25.14;73.11
35918;BME280;22011;59.912;30.300;2023-08-07T03:44:32;100934.69;;;25.16;73.06
35918;BME280;22011;59.912;30.300;2023-08-07T03:47:00;100927.06;;;25.18;72.61
35918;BME280;22011;59.912;30.300;2023-08-07T03:49:28;100932.53;;;25.18;73.10
35918;BME280;22011;59.912;30.300;2023-08-07T03:51:57;100923.84;;;25.21;72.66
35918;BME280;22011;59.912;30.300;2023-08-07T03:54:25;100919.19;;;25.21;72.31
35918;BME280;22011;59.912;30.300;2023-08-07T03:56:54;100920.91;;;25.27;72.01
35918;BME280;22011;59.912;30.300;2023-08-07T03:59:22;100912.97;;;25.26;72.18
35918;BME280;22011;59.912;30.300;2023-08-07T04:01:50;100912.47;;;25.29;71.55
35918;BME280;22011;59.912;30.300;2023-08-07T04:04:18;100913.59;;;25.33;71.28
35918;BME280;22011;59.912;30.300;2023-08-07T04:06:45;100916.34;;;25.38;70.86
35918;BME280;22011;59.912;30.300;2023-08-07T04:09:14;100915.00;;;25.40;70.74
35918;BME280;22011;59.912;30.300;2023-08-07T04:11:43;100911.78;;;25.43;71.25
35918;BME280;22011;59.912;30.300;2023-08-07T04:14:12;100921.91;;;25.48;70.78
35918;BME280;22011;59.912;30.300;2023-08-07T04:16:39;100907.75;;;25.51;70.45
35918;BME280;22011;59.912;30.300;2023-08-07T04:19:07;100911.03;;;25.53;70.08
35918;BME280;22011;59.912;30.300;2023-08-07T04:21:35;100920.09;;;25.59;70.05
35918;BME280;22011;59.912;30.300;2023-08-07T04:24:03;100911.69;;;25.65;69.95
35918;BME280;22011;59.912;30.300;2023-08-07T04:26:36;100913.13;;;25.73;69.13
35918;BME280;22011;59.912;30.300;2023-08-07T04:29:04;100912.59;;;25.76;69.26
35918;BME280;22011;59.912;30.300;2023-08-07T04:31:33;100912.91;;;25.80;69.12
35918;BME280;22011;59.912;30.300;2023-08-07T04:34:00;100910.72;;;25.82;69.04
35918;BME280;22011;59.912;30.300;2023-08-07T04:36:28;100909.94;;;25.86;68.67
35918;BME280;22011;59.912;30.300;2023-08-07T04:38:55;100903.16;;;25.94;68.26
35918;BME280;22011;59.912;30.300;2023-08-07T04:41:23;100907.84;;;25.98;67.73
35918;BME280;22011;59.912;30.300;2023-08-07T04:43:51;100907.00;;;26.03;67.88
35918;BME280;22011;59.912;30.300;2023-08-07T04:46:18;100905.09;;;26.03;67.75
35918;BME280;22011;59.912;30.300;2023-08-07T04:48:47;100896.69;;;26.10;67.59
35918;BME280;22011;59.912;30.300;2023-08-07T04:51:15;100887.97;;;26.18;66.97
35918;BME280;22011;59.912;30.300;2023-08-07T04:53:43;100887.47;;;26.21;66.87
35918;BME280;22011;59.912;30.300;2023-08-07T04:56:10;100897.59;;;26.26;66.81
35918;BME280;22011;59.912;30.300;2023-08-07T04:58:38;100899.78;;;26.29;66.78
35918;BME280;22011;59.912;30.300;2023-08-07T05:01:05;100899.53;;;26.30;66.61
35918;BME280;22011;59.912;30.300;2023-08-07T05:03:33;100902.56;;;26.34;66.33
35918;BME280;22011;59.912;30.300;2023-08-07T05:06:02;100897.94;;;26.39;66.14
35918;BME280;22011;59.912;30.300;2023-08-07T05:08:30;100898.50;;;26.42;65.85
35918;BME280;22011;59.912;30.300;2023-08-07T05:10:57;100895.78;;;26.42;66.11
35918;BME280;22011;59.912;30.300;2023-08-07T05:13:25;100890.34;;;26.47;65.53
35918;BME280;22011;59.912;30.300;2023-08-07T05:15:52;100893.63;;;26.49;65.86
35918;BME280;22011;59.912;30.300;2023-08-07T05:18:20;100891.72;;;26.54;65.44
35918;BME280;22011;59.912;30.300;2023-08-07T05:20:47;100893.66;;;26.59;64.83
35918;BME280;22011;59.912;30.300;2023-08-07T05:23:16;100894.75;;;26.58;65.50
35918;BME280;22011;59.912;30.300;2023-08-07T05:25:45;100891.75;;;26.59;65.11
35918;BME280;22011;59.912;30.300;2023-08-07T05:28:13;100881.09;;;26.63;64.77
35918;BME280;22011;59.912;30.300;2023-08-07T05:30:40;100887.41;;;26.68;64.84
35918;BME280;22011;59.912;30.300;2023-08-07T05:33:08;100895.63;;;26.74;64.27
35918;BME280;22011;59.912;30.300;2023-08-07T05:35:37;100887.44;;;26.84;64.13
35918;BME280;22011;59.912;30.300;2023-08-07T05:38:05;100893.72;;;26.84;64.24
35918;BME280;22011;59.912;30.300;2023-08-07T05:40:35;100897.31;;;26.95;63.67
35918;BME280;22011;59.912;30.300;2023-08-07T05:43:03;100895.44;;;27.00;63.50
35918;BME280;22011;59.912;30.300;2023-08-07T05:45:30;100895.69;;;27.04;63.51
35918;BME280;22011;59.912;30.300;2023-08-07T05:47:58;100888.59;;;27.08;63.31
35918;BME280;22011;59.912;30.300;2023-08-07T05:50:25;100895.41;;;27.11;62.96
35918;BME280;22011;59.912;30.300;2023-08-07T05:52:53;100889.69;;;27.07;63.36
35918;BME280;22011;59.912;30.300;2023-08-07T05:55:21;100875.72;;;27.09;63.03
35918;BME280;22011;59.912;30.300;2023-08-07T05:57:50;100881.75;;;27.21;62.89
35918;BME280;22011;59.912;30.300;2023-08-07T06:00:18;100876.28;;;27.26;62.08
35918;BME280;22011;59.912;30.300;2023-08-07T06:02:45;100873.81;;;27.40;62.08
35918;BME280;22011;59.912;30.300;2023-08-07T06:05:13;100879.03;;;27.46;61.40
35918;BME280;22011;59.912;30.300;2023-08-07T06:07:42;100866.97;;;27.47;61.31
35918;BME280;22011;59.912;30.300;2023-08-07T06:10:10;100864.78;;;27.54;60.92
35918;BME280;22011;59.912;30.300;2023-08-07T06:12:37;100864.25;;;27.67;61.21
35918;BME280;22011;59.912;30.300;2023-08-07T06:15:07;100866.69;;;27.84;60.35
35918;BME280;22011;59.912;30.300;2023-08-07T06:17:35;100862.28;;;27.88;59.71
35918;BME280;22011;59.912;30.300;2023-08-07T06:20:03;100865.84;;;27.94;59.47
35918;BME280;22011;59.912;30.300;2023-08-07T06:22:31;100850.50;;;27.98;59.25
35918;BME280;22011;59.912;30.300;2023-08-07T06:24:59;100854.59;;;28.06;59.46
35918;BME280;22011;59.912;30.300;2023-08-07T06:27:27;100863.84;;;28.10;59.64
35918;BME280;22011;59.912;30.300;2023-08-07T06:29:54;100858.06;;;28.21;58.60
35918;BME280;22011;59.912;30.300;2023-08-07T06:32:24;100863.25;;;28.28;58.87
35918;BME280;22011;59.912;30.300;2023-08-07T06:34:52;100848.75;;;28.22;58.57
35918;BME280;22011;59.912;30.300;2023-08-07T06:37:20;100853.69;;;28.25;58.88
35918;BME280;22011;59.912;30.300;2023-08-07T06:39:47;100835.03;;;28.32;58.49
35918;BME280;22011;59.912;30.300;2023-08-07T06:42:15;100847.88;;;28.37;58.15
35918;BME280;22011;59.912;30.300;2023-08-07T06:44:44;100835.50;;;28.45;57.92
35918;BME280;22011;59.912;30.300;2023-08-07T06:47:12;100845.13;;;28.42;57.93
35918;BME280;22011;59.912;30.300;2023-08-07T06:49:41;100841.81;;;28.45;58.08
35918;BME280;22011;59.912;30.300;2023-08-07T06:52:08;100827.00;;;28.46;58.00
35918;BME280;22011;59.912;30.300;2023-08-07T06:54:36;100825.03;;;28.57;57.46
35918;BME280;22011;59.912;30.300;2023-08-07T06:57:04;100827.44;;;28.69;57.23
35918;BME280;22011;59.912;30.300;2023-08-07T06:59:31;100822.75;;;28.69;57.02
35918;BME280;22011;59.912;30.300;2023-08-07T07:01:59;100823.22;;;28.81;56.92
35918;BME280;22011;59.912;30.300;2023-08-07T07:04:27;100829.53;;;28.87;56.48
35918;BME280;22011;59.912;30.300;2023-08-07T07:06:56;100826.75;;;28.92;56.90
35918;BME280;22011;59.912;30.300;2023-08-07T07:09:23;100830.28;;;28.98;55.57
35918;BME280;22011;59.912;30.300;2023-08-07T07:11:51;100824.75;;;29.03;55.91
35918;BME280;22011;59.912;30.300;2023-08-07T07:14:18;100821.97;;;29.08;55.66
35918;BME280;22011;59.912;30.300;2023-08-07T07:16:46;100825.97;;;29.15;55.67
35918;BME280;22011;59.912;30.300;2023-08-07T07:19:14;100823.59;;;29.09;55.31
35918;BME280;22011;59.912;30.300;2023-08-07T07:21:42;100828.69;;;29.20;55.11
35918;BME280;22011;59.912;30.300;2023-08-07T07:24:12;100829.59;;;29.45;54.38
35918;BME280;22011;59.912;30.300;2023-08-07T07:26:39;100829.22;;;29.56;53.72
35918;BME280;22011;59.912;30.300;2023-08-07T07:29:07;100823.31;;;29.68;53.57
35918;BME280;22011;59.912;30.300;2023-08-07T07:31:35;100826.81;;;29.74;53.45
35918;BME280;22011;59.912;30.300;2023-08-07T07:34:02;100822.91;;;29.80;53.21
35918;BME280;22011;59.912;30.300;2023-08-07T07:36:30;100821.81;;;29.81;52.80
35918;BME280;22011;59.912;30.300;2023-08-07T07:38:58;100820.13;;;29.85;52.55
35918;BME280;22011;59.912;30.300;2023-08-07T07:41:27;100818.34;;;29.94;52.20
35918;BME280;22011;59.912;30.300;2023-08-07T07:43:54;100820.13;;;30.27;53.20
35918;BME280;22011;59.912;30.300;2023-08-07T07:46:23;100811.81;;;30.14;51.90
35918;BME280;22011;59.912;30.300;2023-08-07T07:48:51;100809.16;;;30.27;51.38
35918;BME280;22011;59.912;30.300;2023-08-07T07:51:18;100801.66;;;30.33;51.12
35918;BME280;22011;59.912;30.300;2023-08-07T07:53:46;100801.34;;;30.35;51.15
35918;BME280;22011;59.912;30.300;2023-08-07T07:56:13;100799.06;;;30.42;51.01
35918;BME280;22011;59.912;30.300;2023-08-07T07:58:42;100809.78;;;30.62;49.87
35918;BME280;22011;59.912;30.300;2023-08-07T08:01:10;100792.09;;;30.68;49.88
35918;BME280;22011;59.912;30.300;2023-08-07T08:03:39;100797.44;;;30.78;49.46
35918;BME280;22011;59.912;30.300;2023-08-07T08:06:06;100786.97;;;30.80;49.58
35918;BME280;22011;59.912;30.300;2023-08-07T08:08:35;100790.06;;;30.93;49.03
35918;BME280;22011;59.912;30.300;2023-08-07T08:11:02;100791.91;;;30.97;49.07
35918;BME280;22011;59.912;30.300;2023-08-07T08:13:30;100789.06;;;31.02;48.91
35918;BME280;22011;59.912;30.300;2023-08-07T08:15:59;100789.25;;;31.25;48.46
35918;BME280;22011;59.912;30.300;2023-08-07T08:18:27;100784.97;;;31.32;48.09
35918;BME280;22011;59.912;30.300;2023-08-07T08:20:54;100783.97;;;31.42;47.71
35918;BME280;22011;59.912;30.300;2023-08-07T08:23:22;100773.97;;;31.32;48.12
35918;BME280;22011;59.912;30.300;2023-08-07T08:25:49;100783.03;;;31.33;47.96
35918;BME280;22011;59.912;30.300;2023-08-07T08:28:17;100773.16;;;31.45;47.62
35918;BME280;22011;59.912;30.300;2023-08-07T08:30:45;100777.25;;;31.48;47.83
35918;BME280;22011;59.912;30.300;2023-08-07T08:33:14;100781.66;;;31.63;47.09
35918;BME280;22011;59.912;30.300;2023-08-07T08:35:41;100773.41;;;31.76;46.51
35918;BME280;22011;59.912;30.300;2023-08-07T08:38:09;100776.16;;;31.76;46.57
35918;BME280;22011;59.912;30.300;2023-08-07T08:40:38;100776.88;;;31.82;46.65
35918;BME280;22011;59.912;30.300;2023-08-07T08:43:06;100775.50;;;32.21;47.26
35918;BME280;22011;59.912;30.300;2023-08-07T08:45:33;100767.56;;;32.05;45.59
35918;BME280;22011;59.912;30.300;2023-08-07T08:48:05;100774.00;;;32.14;45.48
35918;BME280;22011;59.912;30.300;2023-08-07T08:50:37;100762.38;;;32.04;45.80
35918;BME280;22011;59.912;30.300;2023-08-07T08:53:05;100769.22;;;31.93;45.82
35918;BME280;22011;59.912;30.300;2023-08-07T08:55:35;100772.19;;;31.96;45.31
35918;BME280;22011;59.912;30.300;2023-08-07T08:58:03;100769.53;;;32.05;44.37
35918;BME280;22011;59.912;30.300;2023-08-07T09:00:33;100767.91;;;31.90;44.84
35918;BME280;22011;59.912;30.300;2023-08-07T09:03:01;100767.06;;;32.03;43.95
35918;BME280;22011;59.912;30.300;2023-08-07T09:05:29;100772.25;;;32.18;43.02
35918;BME280;22011;59.912;30.300;2023-08-07T09:07:58;100771.53;;;32.27;42.76
35918;BME280;22011;59.912;30.300;2023-08-07T09:10:27;100752.41;;;32.30;42.16
35918;BME280;22011;59.912;30.300;2023-08-07T09:13:00;100760.66;;;32.44;42.79
35918;BME280;22011;59.912;30.300;2023-08-07T09:15:30;100754.28;;;32.57;42.75
35918;BME280;22011;59.912;30.300;2023-08-07T09:17:58;100749.38;;;32.54;42.23
35918;BME280;22011;59.912;30.300;2023-08-07T09:20:27;100748.56;;;32.54;42.61
35918;BME280;22011;59.912;30.300;2023-08-07T09:22:55;100752.41;;;32.66;42.34
35918;BME280;22011;59.912;30.300;2023-08-07T09:25:30;100743.59;;;32.78;41.68
35918;BME280;22011;59.912;30.300;2023-08-07T09:28:01;100752.19;;;32.63;41.57
35918;BME280;22011;59.912;30.300;2023-08-07T09:30:31;100744.94;;;32.67;41.04
35918;BME280;22011;59.912;30.300;2023-08-07T09:32:59;100737.97;;;32.69;40.78
35918;BME280;22011;59.912;30.300;2023-08-07T09:35:29;100732.22;;;32.79;40.57
35918;BME280;22011;59.912;30.300;2023-08-07T09:37:57;100734.38;;;32.82;41.17
35918;BME280;22011;59.912;30.300;2023-08-07T09:40:25;100741.88;;;32.91;40.21
35918;BME280;22011;59.912;30.300;2023-08-07T09:42:54;100735.28;;;33.00;40.25
35918;BME280;22011;59.912;30.300;2023-08-07T09:45:23;100733.66;;;32.99;40.41
35918;BME280;22011;59.912;30.300;2023-08-07T09:47:57;100728.00;;;33.04;40.09
35918;BME280;22011;59.912;30.300;2023-08-07T09:50:26;100727.22;;;32.81;40.56
35918;BME280;22011;59.912;30.300;2023-08-07T09:52:54;100717.09;;;32.99;39.94
35918;BME280;22011;59.912;30.300;2023-08-07T09:55:24;100723.16;;;33.10;39.56
35918;BME280;22011;59.912;30.300;2023-08-07T09:57:52;100706.41;;;33.06;39.05
35918;BME280;22011;59.912;30.300;2023-08-07T10:00:21;100716.31;;;33.07;39.51
35918;BME280;22011;59.912;30.300;2023-08-07T10:02:49;100708.72;;;33.53;40.43
35918;BME280;22011;59.912;30.300;2023-08-07T10:05:17;100708.00;;;33.30;38.77
35918;BME280;22011;59.912;30.300;2023-08-07T10:07:46;100710.25;;;33.28;37.99
35918;BME280;22011;59.912;30.300;2023-08-07T10:10:14;100710.88;;;33.64;39.62
35918;BME280;22011;59.912;30.300;2023-08-07T10:12:42;100694.78;;;33.18;37.14
35918;BME280;22011;59.912;30.300;2023-08-07T10:15:12;100696.09;;;33.21;37.27
35918;BME280;22011;59.912;30.300;2023-08-07T10:17:41;100699.03;;;33.24;37.44
35918;BME280;22011;59.912;30.300;2023-08-07T10:20:10;100689.44;;;33.22;37.82
35918;BME280;22011;59.912;30.300;2023-08-07T10:22:38;100684.25;;;33.20;37.20
35918;BME280;22011;59.912;30.300;2023-08-07T10:25:07;100689.09;;;33.14;37.70
35918;BME280;22011;59.912;30.300;2023-08-07T10:27:38;100686.22;;;33.28;38.03
35918;BME280;22011;59.912;30.300;2023-08-07T10:30:10;100684.31;;;33.37;37.62
35918;BME280;22011;59.912;30.300;2023-08-07T10:32:41;100683.03;;;33.43;37.00
35918;BME280;22011;59.912;30.300;2023-08-07T10:35:10;100671.78;;;33.31;37.23
35918;BME280;22011;59.912;30.300;2023-08-07T10:37:41;100689.97;;;33.32;37.18
35918;BME280;22011;59.912;30.300;2023-08-07T10:40:10;100680.00;;;33.14;37.42
35918;BME280;22011;59.912;30.300;2023-08-07T10:43:12;100676.16;;;33.32;37.73
35918;BME280;22011;59.912;30.300;2023-08-07T10:45:40;100675.41;;;33.09;36.38
35918;BME280;22011;59.912;30.300;2023-08-07T10:48:11;100673.69;;;33.22;36.61
35918;BME280;22011;59.912;30.300;2023-08-07T10:51:02;100678.47;;;33.39;37.55
35918;BME280;22011;59.912;30.300;2023-08-07T10:53:31;100667.31;;;33.13;37.27
35918;BME280;22011;59.912;30.300;2023-08-07T10:56:01;100669.75;;;33.63;37.72
35918;BME280;22011;59.912;30.300;2023-08-07T10:58:30;100663.84;;;33.38;35.78
35918;BME280;22011;59.912;30.300;2023-08-07T11:01:21;100675.56;;;33.53;36.53
35918;BME280;22011;59.912;30.300;2023-08-07T11:03:52;100665.59;;;33.34;36.40
35918;BME280;22011;59.912;30.300;2023-08-07T11:06:26;100661.56;;;33.40;35.87
35918;BME280;22011;59.912;30.300;2023-08-07T11:08:54;100651.47;;;33.27;35.70
35918;BME280;22011;59.912;30.300;2023-08-07T11:11:22;100650.81;;;33.30;35.54
35918;BME280;22011;59.912;30.300;2023-08-07T11:13:50;100643.31;;;33.22;35.12
35918;BME280;22011;59.912;30.300;2023-08-07T11:16:18;100635.38;;;33.29;34.62
35918;BME280;22011;59.912;30.300;2023-08-07T11:18:47;100642.53;;;33.30;34.74
35918;BME280;22011;59.912;30.300;2023-08-07T11:21:16;100640.59;;;33.39;34.44
35918;BME280;22011;59.912;30.300;2023-08-07T11:23:44;100642.63;;;33.73;35.84
35918;BME280;22011;59.912;30.300;2023-08-07T11:26:12;100638.66;;;33.40;35.28
35918;BME280;22011;59.912;30.300;2023-08-07T11:28:40;100630.19;;;33.28;35.21
35918;BME280;22011;59.912;30.300;2023-08-07T11:31:07;100625.63;;;33.23;35.17
35918;BME280;22011;59.912;30.300;2023-08-07T11:33:36;100625.47;;;33.28;34.87
35918;BME280;22011;59.912;30.300;2023-08-07T11:36:10;100619.19;;;33.54;34.69
35918;BME280;22011;59.912;30.300;2023-08-07T11:38:40;100635.59;;;33.50;35.28
35918;BME280;22011;59.912;30.300;2023-08-07T11:41:10;100617.22;;;33.37;34.72
35918;BME280;22011;59.912;30.300;2023-08-07T11:43:38;100616.25;;;33.41;34.67
35918;BME280;22011;59.912;30.300;2023-08-07T11:46:08;100610.56;;;33.46;34.19
35918;BME280;22011;59.912;30.300;2023-08-07T11:48:37;100604.38;;;33.32;35.01
35918;BME280;22011;59.912;30.300;2023-08-07T11:51:05;100602.91;;;33.35;34.85
35918;BME280;22011;59.912;30.300;2023-08-07T11:53:34;100586.97;;;33.32;35.40
35918;BME280;22011;59.912;30.300;2023-08-07T11:56:06;100592.69;;;33.35;35.94
35918;BME280;22011;59.912;30.300;2023-08-07T11:58:36;100594.47;;;33.40;35.18
35918;BME280;22011;59.912;30.300;2023-08-07T12:01:04;100597.44;;;33.78;35.83
35918;BME280;22011;59.912;30.300;2023-08-07T12:03:34;100579.22;;;33.51;35.24
35918;BME280;22011;59.912;30.300;2023-08-07T12:06:07;100581.19;;;33.59;35.37
35918;BME280;22011;59.912;30.300;2023-08-07T12:08:36;100578.41;;;33.59;35.08
35918;BME280;22011;59.912;30.300;2023-08-07T12:11:07;100571.41;;;33.53;35.45
35918;BME280;22011;59.912;30.300;2023-08-07T12:13:37;100564.44;;;33.56;35.33
35918;BME280;22011;59.912;30.300;2023-08-07T12:16:05;100570.28;;;33.45;35.01
35918;BME280;22011;59.912;30.300;2023-08-07T12:18:35;100558.75;;;33.52;35.07
35918;BME280;22011;59.912;30.300;2023-08-07T12:21:05;100565.09;;;33.53;34.99
35918;BME280;22011;59.912;30.300;2023-08-07T12:23:35;100552.56;;;33.46;35.23
35918;BME280;22011;59.912;30.300;2023-08-07T12:26:03;100545.25;;;33.33;34.62
35918;BME280;22011;59.912;30.300;2023-08-07T12:28:34;100559.19;;;33.28;34.99
35918;BME280;22011;59.912;30.300;2023-08-07T12:31:02;100544.59;;;33.28;35.04
35918;BME280;22011;59.912;30.300;2023-08-07T12:33:30;100534.03;;;33.30;35.34
35918;BME280;22011;59.912;30.300;2023-08-07T12:35:59;100539.88;;;33.37;35.49
35918;BME280;22011;59.912;30.300;2023-08-07T12:38:27;100535.34;;;33.50;34.63
35918;BME280;22011;59.912;30.300;2023-08-07T12:40:55;100532.41;;;33.46;34.79
35918;BME280;22011;59.912;30.300;2023-08-07T12:43:23;100535.50;;;33.44;34.64
35918;BME280;22011;59.912;30.300;2023-08-07T12:45:52;100527.38;;;33.31;35.30
35918;BME280;22011;59.912;30.300;2023-08-07T12:48:20;100535.00;;;33.34;34.99